全部
Telfer Airport (Telfer, Western Australia) TEF 天气
|
Telfer, Western Australia (YTEF)
局部多云
多风 |
|
19 °C |
TEF终端机场天气预报
| Date | Time (AWST) | Flight Rules | Wind Dir. | Speed | Type | Height AGL (ft) | Visibility | Remarks | ||||||
|---|---|---|---|---|---|---|---|---|---|---|---|---|---|---|
TEF近期METAR历史数据
| Date | Time (AWST) | Flight Rules | Wind Dir. | Speed | Type | Height AGL (ft) | Visibility | Temp (°C) | Temp (°F) | Dew Point (°C) | Dew Point (°F) | Rel. Humid. | Pressure | Density Altitude | Remarks |
|---|---|---|---|---|---|---|---|---|---|---|---|---|---|---|---|
| 03-五月 | 01:00 | VFR | 140° | 12 kt | Few |
11,000 |
10000 meters | 19° | 66° | -1° | 30° | 26% | 1016 mb | 1,368 ft | |
| 03-五月 | 00:00 | VFR | 140° | 15 kt | 10000 meters | 20° | 68° | -1° | 30° | 24% | 1016 mb | 1,488 ft | |||
| 02-五月 | 23:00 | VFR | 140° | 14 kt | 10000 meters | 20° | 68° | 0° | 32° | 26% | 1017 mb | 1,458 ft | |||
| 02-五月 | 22:00 | VFR | 150° | 13 kt | 10000 meters | 21° | 69° | 2° | 35° | 28% | 1017 mb | 1,578 ft | |||
| 02-五月 | 21:00 | VFR | 150° | 13 kt | 10000 meters | 21° | 69° | 2° | 35° | 28% | 1017 mb | 1,578 ft | |||
| 02-五月 | 20:00 | VFR | 150° | 12 kt | 10000 meters | 22° | 71° | 2° | 35° | 27% | 1016 mb | 1,728 ft | |||
| 02-五月 | 19:00 | VFR | 150° | 14 kt | 10000 meters | 23° | 73° | 2° | 35° | 25% | 1015 mb | 1,877 ft | |||
| 02-五月 | 18:00 | VFR | 150° | 14 kt | 10000 meters | 24° | 75° | 3° | 37° | 25% | 1015 mb | 1,997 ft | |||
| 02-五月 | 17:00 | VFR | 140° | 15 kt | 10000 meters | 25° | 77° | 4° | 39° | 26% | 1014 mb | 2,147 ft | |||
| 02-五月 | 16:00 | VFR | 140° | 13 kt | 10000 meters | 26° | 78° | 5° | 41° | 26% | 1014 mb | 2,267 ft | |||
| 02-五月 | 15:00 | VFR | 130° | 15 kt | 10000 meters | 26° | 78° | 6° | 42° | 28% | 1014 mb | 2,267 ft | |||
| 02-五月 | 14:00 | VFR | 130° | 17 kt | 10000 meters | 25° | 77° | 5° | 41° | 28% | 1014 mb | 2,147 ft | |||
| 02-五月 | 13:00 | VFR | 140° | 16 kt | 10000 meters | 26° | 78° | 6° | 42° | 28% | 1014 mb | 2,267 ft | |||
| 02-五月 | 12:00 | VFR | 130° | 17 kt | 10000 meters | 26° | 78° | 6° | 42° | 28% | 1015 mb | 2,237 ft | |||
| 02-五月 | 11:00 | VFR | 140° | 18 kt | 10000 meters | 25° | 77° | 7° | 44° | 32% | 1016 mb | 2,088 ft | |||
| 02-五月 | 10:00 | VFR | 140° | 20 kt | 10000 meters | 25° | 77° | 8° | 46° | 34% | 1017 mb | 2,058 ft | |||
| 02-五月 | 09:00 | VFR | 140° | 21 kt | 10000 meters | 23° | 73° | 7° | 44° | 36% | 1017 mb | 1,818 ft | |||
| 02-五月 | 08:00 | VFR | 140° | 19 kt | 10000 meters | 22° | 71° | 8° | 46° | 41% | 1016 mb | 1,728 ft | |||
| 02-五月 | 07:00 | VFR | 140° | 17 kt | 10000 meters | 21° | 69° | 7° | 44° | 40% | 1015 mb | 1,637 ft | |||
| 02-五月 | 06:00 | VFR | 140° | 18 kt | 10000 meters | 22° | 71° | 8° | 46° | 41% | 1014 mb | 1,787 ft | |||
| 02-五月 | 05:00 | VFR | 150° | 14 kt | 10000 meters | 23° | 73° | 9° | 48° | 41% | 1014 mb | 1,907 ft | |||
| 02-五月 | 04:00 | VFR | 140° | 15 kt | 10000 meters | 24° | 75° | 10° | 50° | 41% | 1013 mb | 2,056 ft | |||
| 02-五月 | 03:00 | VFR | 140° | 10 kt | 10000 meters | 24° | 75° | 13° | 55° | 50% | 1013 mb | 2,056 ft | |||
| 02-五月 | 02:00 | VFR | 120° | 7 kt | 10000 meters | 24° | 75° | 12° | 53° | 47% | 1013 mb | 2,056 ft |
登录
| 您的浏览器不支持. 升级您的浏览器 |
